Time;durP1;ratioP1;P1;durP2;ratioP2;P2;SDS_P1;SDS_P2;PMS_P1;PMS_P2;Temp;Humidity;BMP_temperature;BMP_pressure;BME280_temperature;BME280_humidity;BME280_pressure;Samples;Min_cycle;Max_cycle;Signal;HPM_P1;HPM_P2
2023/06/19 00:02:24;;;;;;;7.43;6.53;;;;;;;;;;4996223;28;92246;-77
2023/06/19 00:04:51;;;;;;;8.20;6.32;;;;;;;;;;5014694;28;95288;-77
2023/06/19 00:07:18;;;;;;;6.93;6.22;;;;;;;;;;4990854;28;94799;-76
2023/06/19 00:09:45;;;;;;;6.82;6.13;;;;;;;;;;4992582;28;92144;-77
2023/06/19 00:12:11;;;;;;;7.57;6.03;;;;;;;;;;4977218;28;92474;-76
2023/06/19 00:14:39;;;;;;;7.43;6.35;;;;;;;;;;4985741;28;92227;-77
2023/06/19 00:17:06;;;;;;;8.10;6.70;;;;;;;;;;4993722;28;93567;-77
2023/06/19 00:19:35;;;;;;;9.30;6.38;;;;;;;;;;4977126;28;92464;-77
2023/06/19 00:22:05;;;;;;;9.65;7.00;;;;;;;;;;4975885;28;92518;-77
2023/06/19 00:24:31;;;;;;;7.72;6.53;;;;;;;;;;4993479;28;91870;-77
2023/06/19 00:27:02;;;;;;;8.40;6.43;;;;;;;;;;4984814;28;92428;-77
2023/06/19 00:29:29;;;;;;;8.37;6.27;;;;;;;;;;4977021;28;92979;-77
2023/06/19 00:31:56;;;;;;;10.93;6.60;;;;;;;;;;4986495;28;94612;-77
2023/06/19 00:34:25;;;;;;;14.05;7.15;;;;;;;;;;4996290;28;94635;-77
2023/06/19 00:36:56;;;;;;;8.57;6.78;;;;;;;;;;4996669;28;92190;-77
2023/06/19 00:39:23;;;;;;;9.93;5.55;;;;;;;;;;4980856;28;94780;-77
2023/06/19 00:41:51;;;;;;;14.82;7.20;;;;;;;;;;4991802;28;94622;-77
2023/06/19 00:44:17;;;;;;;11.18;6.80;;;;;;;;;;4986016;28;95315;-77
2023/06/19 00:46:44;;;;;;;8.50;6.75;;;;;;;;;;5005335;28;95859;-77
2023/06/19 00:49:11;;;;;;;12.70;7.00;;;;;;;;;;4992232;28;94115;-77
2023/06/19 00:51:38;;;;;;;10.25;5.70;;;;;;;;;;5013183;28;93951;-77
2023/06/19 00:54:05;;;;;;;17.25;6.18;;;;;;;;;;4988139;28;93085;-77
2023/06/19 00:56:32;;;;;;;6.82;5.78;;;;;;;;;;4987111;28;96988;-77
2023/06/19 00:58:58;;;;;;;6.88;5.57;;;;;;;;;;4985763;28;92330;-78
2023/06/19 01:01:26;;;;;;;9.63;5.72;;;;;;;;;;5001876;28;92863;-77
2023/06/19 01:03:52;;;;;;;7.30;5.00;;;;;;;;;;4999616;28;94112;-78
2023/06/19 01:06:26;;;;;;;6.32;4.68;;;;;;;;;;4989243;28;92515;-77
2023/06/19 01:09:02;;;;;;;8.45;4.25;;;;;;;;;;5008150;28;92042;-77
2023/06/19 01:11:32;;;;;;;5.30;4.22;;;;;;;;;;4977081;28;92421;-77
2023/06/19 01:14:00;;;;;;;6.80;4.80;;;;;;;;;;4993982;28;92853;-78
2023/06/19 01:16:28;;;;;;;5.13;3.45;;;;;;;;;;5003075;28;92716;-78
2023/06/19 01:18:54;;;;;;;6.72;3.60;;;;;;;;;;4982760;28;93216;-77
2023/06/19 01:21:21;;;;;;;3.63;3.30;;;;;;;;;;4987105;28;94814;-78
2023/06/19 01:23:48;;;;;;;5.00;3.75;;;;;;;;;;4987834;28;94226;-77
2023/06/19 01:26:16;;;;;;;7.43;3.30;;;;;;;;;;4985776;28;92469;-77
2023/06/19 01:28:43;;;;;;;12.07;3.55;;;;;;;;;;4984248;28;92671;-77
2023/06/19 01:31:15;;;;;;;4.00;3.40;;;;;;;;;;5012581;28;92702;-78
2023/06/19 01:33:42;;;;;;;9.23;3.55;;;;;;;;;;5013015;28;92293;-79
2023/06/19 01:36:10;;;;;;;4.15;3.05;;;;;;;;;;5030859;28;95631;-79
2023/06/19 01:38:37;;;;;;;4.97;2.70;;;;;;;;;;5001081;28;94357;-78
2023/06/19 01:41:04;;;;;;;8.88;2.60;;;;;;;;;;5008116;28;93204;-77
2023/06/19 01:43:31;;;;;;;7.95;2.90;;;;;;;;;;5009979;28;92300;-77
2023/06/19 01:45:58;;;;;;;2.28;2.15;;;;;;;;;;4996420;28;94920;-78
2023/06/19 01:48:26;;;;;;;2.88;2.60;;;;;;;;;;5010364;28;95189;-77
2023/06/19 01:50:52;;;;;;;4.60;2.50;;;;;;;;;;4980899;28;94670;-79
2023/06/19 01:53:19;;;;;;;2.22;2.03;;;;;;;;;;5000556;28;92492;-78
2023/06/19 01:55:46;;;;;;;8.18;2.42;;;;;;;;;;4980265;28;94712;-78
2023/06/19 01:58:12;;;;;;;5.70;2.97;;;;;;;;;;4996027;28;93743;-78
2023/06/19 02:00:39;;;;;;;4.20;2.35;;;;;;;;;;4995866;28;92703;-77
2023/06/19 02:03:05;;;;;;;3.85;2.17;;;;;;;;;;5012079;28;93926;-78
2023/06/19 02:05:34;;;;;;;2.03;1.73;;;;;;;;;;5013629;28;92582;-78
2023/06/19 02:08:00;;;;;;;3.28;1.92;;;;;;;;;;5011837;28;93279;-78
2023/06/19 02:10:27;;;;;;;5.65;1.90;;;;;;;;;;5003060;28;97278;-78
2023/06/19 02:12:54;;;;;;;3.33;2.13;;;;;;;;;;5012399;28;95284;-78
2023/06/19 02:15:21;;;;;;;2.15;2.05;;;;;;;;;;4989769;28;92307;-78
2023/06/19 02:17:48;;;;;;;5.50;2.63;;;;;;;;;;4978568;28;95185;-79
2023/06/19 02:20:14;;;;;;;5.90;2.25;;;;;;;;;;5004423;28;94095;-77
2023/06/19 02:22:41;;;;;;;2.13;1.98;;;;;;;;;;4995046;28;92340;-77
2023/06/19 02:25:08;;;;;;;5.30;2.20;;;;;;;;;;4992121;28;95046;-78
2023/06/19 02:27:34;;;;;;;2.15;1.95;;;;;;;;;;4994249;28;93258;-79
2023/06/19 02:30:01;;;;;;;2.30;2.10;;;;;;;;;;5000943;28;93756;-79
2023/06/19 02:32:28;;;;;;;2.17;2.00;;;;;;;;;;4981946;28;92307;-78
2023/06/19 02:34:55;;;;;;;4.05;2.20;;;;;;;;;;5000184;28;94606;-78
2023/06/19 02:37:21;;;;;;;2.90;2.30;;;;;;;;;;4997435;28;92332;-78
2023/06/19 02:39:48;;;;;;;5.07;2.50;;;;;;;;;;4996280;28;92905;-77
2023/06/19 02:42:14;;;;;;;4.55;2.22;;;;;;;;;;5011960;28;92295;-78
2023/06/19 02:44:45;;;;;;;4.35;2.17;;;;;;;;;;4978531;28;94465;-77
2023/06/19 02:47:12;;;;;;;2.05;1.80;;;;;;;;;;4990824;28;92545;-78
2023/06/19 02:49:38;;;;;;;5.03;2.20;;;;;;;;;;4994562;28;93983;-79
2023/06/19 02:52:06;;;;;;;6.63;2.08;;;;;;;;;;4995841;28;93223;-79
2023/06/19 02:54:32;;;;;;;2.70;2.20;;;;;;;;;;4992771;28;94003;-77
2023/06/19 02:56:59;;;;;;;3.00;2.58;;;;;;;;;;5007743;28;92203;-77
2023/06/19 02:59:26;;;;;;;4.13;2.53;;;;;;;;;;5003074;28;94684;-78
2023/06/19 03:01:52;;;;;;;7.30;1.98;;;;;;;;;;5000355;28;95120;-77
2023/06/19 03:04:19;;;;;;;4.35;2.30;;;;;;;;;;4993146;28;92505;-77
2023/06/19 03:06:46;;;;;;;3.28;2.60;;;;;;;;;;5010888;28;93902;-78
2023/06/19 03:09:12;;;;;;;2.80;2.60;;;;;;;;;;4996999;28;95161;-77
2023/06/19 03:11:39;;;;;;;2.70;2.50;;;;;;;;;;4987315;28;92443;-77
2023/06/19 03:14:07;;;;;;;2.95;2.75;;;;;;;;;;4994028;28;94392;-78
2023/06/19 03:16:34;;;;;;;3.45;2.83;;;;;;;;;;5001763;28;93061;-77
2023/06/19 03:19:01;;;;;;;2.60;2.40;;;;;;;;;;5000460;28;92988;-78
2023/06/19 03:21:31;;;;;;;2.97;2.50;;;;;;;;;;4991608;28;92188;-77
2023/06/19 03:23:57;;;;;;;2.38;2.15;;;;;;;;;;4983379;28;95767;-78
2023/06/19 03:26:24;;;;;;;3.25;2.97;;;;;;;;;;5011426;28;96892;-78
2023/06/19 03:28:52;;;;;;;4.07;3.20;;;;;;;;;;5003818;28;92224;-78
2023/06/19 03:31:20;;;;;;;5.15;2.63;;;;;;;;;;5011530;28;93141;-78
2023/06/19 03:33:47;;;;;;;3.88;3.45;;;;;;;;;;4993309;28;92485;-78
2023/06/19 03:36:14;;;;;;;3.65;3.17;;;;;;;;;;5017851;28;95117;-77
2023/06/19 03:38:48;;;;;;;4.63;3.60;;;;;;;;;;5018355;28;94563;-78
2023/06/19 03:41:18;;;;;;;3.38;3.08;;;;;;;;;;5008996;28;92094;-78
2023/06/19 03:43:46;;;;;;;3.75;3.45;;;;;;;;;;5009649;28;94163;-78
2023/06/19 03:46:13;;;;;;;5.63;3.50;;;;;;;;;;4998918;28;93405;-76
2023/06/19 03:48:39;;;;;;;4.57;3.42;;;;;;;;;;4993778;28;97606;-77
2023/06/19 03:51:06;;;;;;;4.18;2.90;;;;;;;;;;4990693;28;92378;-78
2023/06/19 03:53:33;;;;;;;3.65;3.35;;;;;;;;;;4997362;28;93236;-77
2023/06/19 03:55:59;;;;;;;4.18;3.70;;;;;;;;;;5020820;28;92896;-78
2023/06/19 03:58:25;;;;;;;9.73;5.07;;;;;;;;;;4990979;28;95108;-77
2023/06/19 04:00:52;;;;;;;5.43;4.95;;;;;;;;;;4988404;28;93028;-77
2023/06/19 04:03:19;;;;;;;10.20;6.75;;;;;;;;;;5003267;28;92569;-77
2023/06/19 04:05:46;;;;;;;9.05;6.60;;;;;;;;;;5016648;28;92005;-78
2023/06/19 04:08:12;;;;;;;6.95;6.25;;;;;;;;;;5004956;28;94398;-77
2023/06/19 04:10:42;;;;;;;8.27;6.80;;;;;;;;;;4997193;28;96061;-78
2023/06/19 04:13:08;;;;;;;8.50;7.00;;;;;;;;;;5014800;28;94854;-78
2023/06/19 04:15:36;;;;;;;7.97;6.40;;;;;;;;;;4999613;28;95415;-78
2023/06/19 04:18:03;;;;;;;7.97;7.10;;;;;;;;;;5003246;28;93614;-78
2023/06/19 04:20:30;;;;;;;8.20;6.60;;;;;;;;;;5003960;28;92223;-79
2023/06/19 04:22:56;;;;;;;12.27;7.65;;;;;;;;;;5014754;28;94236;-78
2023/06/19 04:25:23;;;;;;;10.95;8.55;;;;;;;;;;4998212;28;92044;-78
2023/06/19 04:27:50;;;;;;;17.23;10.55;;;;;;;;;;4986218;28;92161;-78
2023/06/19 04:30:17;;;;;;;16.05;11.07;;;;;;;;;;4986819;28;92011;-78
2023/06/19 04:32:44;;;;;;;14.50;12.00;;;;;;;;;;5011563;28;92505;-78
2023/06/19 04:35:10;;;;;;;13.43;10.52;;;;;;;;;;5001613;28;93241;-78
2023/06/19 04:37:37;;;;;;;13.70;10.45;;;;;;;;;;4999632;28;94870;-78
2023/06/19 04:40:04;;;;;;;14.82;11.73;;;;;;;;;;4983102;28;94465;-77
2023/06/19 04:42:31;;;;;;;17.75;11.15;;;;;;;;;;4985400;28;93026;-77
2023/06/19 04:44:59;;;;;;;16.13;9.88;;;;;;;;;;5019024;28;92852;-77
2023/06/19 04:47:26;;;;;;;11.30;9.73;;;;;;;;;;5005013;28;93124;-78
2023/06/19 04:50:06;;;;;;;11.98;9.10;;;;;;;;;;5004130;28;92335;-77
2023/06/19 04:52:33;;;;;;;11.75;9.43;;;;;;;;;;4994630;28;92295;-76
2023/06/19 04:55:00;;;;;;;9.93;7.78;;;;;;;;;;4997257;28;92440;-78
2023/06/19 04:57:26;;;;;;;5.97;5.35;;;;;;;;;;5001535;28;92527;-78
2023/06/19 04:59:53;;;;;;;7.75;4.20;;;;;;;;;;4995229;28;92878;-79
2023/06/19 05:02:19;;;;;;;4.40;3.65;;;;;;;;;;5005922;28;96083;-78
2023/06/19 05:04:46;;;;;;;3.95;2.97;;;;;;;;;;4999106;28;95892;-78
2023/06/19 05:07:15;;;;;;;2.90;2.60;;;;;;;;;;4994343;28;93751;-78
2023/06/19 05:09:41;;;;;;;3.30;2.90;;;;;;;;;;4999974;28;93762;-78
2023/06/19 05:12:08;;;;;;;3.05;2.78;;;;;;;;;;4996634;28;93965;-78
2023/06/19 05:14:34;;;;;;;4.95;3.70;;;;;;;;;;4978901;28;92367;-78
2023/06/19 05:17:01;;;;;;;3.97;3.00;;;;;;;;;;4992888;28;92909;-78
2023/06/19 05:19:28;;;;;;;7.35;5.00;;;;;;;;;;4979125;28;92078;-77
2023/06/19 05:21:54;;;;;;;6.65;5.60;;;;;;;;;;4986331;28;93102;-78
2023/06/19 05:24:21;;;;;;;7.25;5.65;;;;;;;;;;5001751;28;94160;-77
2023/06/19 05:26:47;;;;;;;8.38;5.95;;;;;;;;;;4997605;28;94720;-79
2023/06/19 05:29:14;;;;;;;9.30;4.70;;;;;;;;;;5003900;28;92381;-78
2023/06/19 05:31:40;;;;;;;4.10;3.65;;;;;;;;;;5011364;28;92284;-78
2023/06/19 05:34:07;;;;;;;7.88;4.70;;;;;;;;;;4986989;28;92534;-78
2023/06/19 05:36:33;;;;;;;4.43;3.88;;;;;;;;;;4992790;28;93827;-79
2023/06/19 05:39:00;;;;;;;4.10;3.70;;;;;;;;;;5005603;28;94797;-78
2023/06/19 05:41:26;;;;;;;7.38;4.03;;;;;;;;;;4999443;28;92308;-79
2023/06/19 05:43:53;;;;;;;5.95;4.20;;;;;;;;;;5003416;28;92017;-79
2023/06/19 05:46:20;;;;;;;5.10;3.90;;;;;;;;;;5010835;28;92463;-78
2023/06/19 05:48:47;;;;;;;4.47;3.97;;;;;;;;;;4996260;28;94835;-79
2023/06/19 05:51:14;;;;;;;7.28;4.00;;;;;;;;;;4995512;28;94825;-78
2023/06/19 05:53:40;;;;;;;7.30;4.78;;;;;;;;;;4977758;28;92257;-77
2023/06/19 05:56:07;;;;;;;10.45;4.60;;;;;;;;;;4998561;28;91987;-77
2023/06/19 05:58:34;;;;;;;6.70;5.05;;;;;;;;;;5005101;28;92334;-78
2023/06/19 06:01:00;;;;;;;11.02;6.60;;;;;;;;;;5008106;28;95192;-78
2023/06/19 06:03:27;;;;;;;9.10;6.88;;;;;;;;;;5005152;28;92425;-78
2023/06/19 06:05:54;;;;;;;8.70;6.95;;;;;;;;;;5005740;28;92880;-79
2023/06/19 06:08:20;;;;;;;15.23;6.57;;;;;;;;;;5007875;28;91670;-78
2023/06/19 06:10:47;;;;;;;11.65;6.32;;;;;;;;;;5003199;28;93098;-79
2023/06/19 06:13:13;;;;;;;11.07;6.57;;;;;;;;;;4995481;28;91997;-78
2023/06/19 06:15:40;;;;;;;9.15;6.47;;;;;;;;;;5011837;28;94709;-79
2023/06/19 06:18:06;;;;;;;8.02;6.22;;;;;;;;;;5016965;28;94163;-79
2023/06/19 06:20:33;;;;;;;8.93;6.50;;;;;;;;;;4987153;28;93847;-77
2023/06/19 06:22:59;;;;;;;8.82;6.38;;;;;;;;;;5002055;28;92538;-78
2023/06/19 06:25:26;;;;;;;21.85;7.20;;;;;;;;;;5005303;28;92296;-79
2023/06/19 06:27:52;;;;;;;24.92;6.65;;;;;;;;;;5009059;28;92415;-78
2023/06/19 06:30:19;;;;;;;21.88;6.47;;;;;;;;;;5007258;28;92797;-79
2023/06/19 06:32:46;;;;;;;18.40;5.40;;;;;;;;;;5012103;28;91978;-78
2023/06/19 06:35:12;;;;;;;11.90;4.40;;;;;;;;;;4988390;28;94267;-78
2023/06/19 06:37:40;;;;;;;10.38;4.85;;;;;;;;;;5008276;28;92242;-79
2023/06/19 06:40:10;;;;;;;11.82;5.75;;;;;;;;;;5014697;28;94747;-78
2023/06/19 06:42:38;;;;;;;22.48;6.55;;;;;;;;;;4999106;28;93133;-77
2023/06/19 06:45:05;;;;;;;7.45;6.50;;;;;;;;;;4997602;28;93376;-77
2023/06/19 06:47:31;;;;;;;6.80;6.03;;;;;;;;;;4999969;28;93742;-77
2023/06/19 06:49:58;;;;;;;8.55;4.93;;;;;;;;;;4980526;28;92434;-78
2023/06/19 06:52:25;;;;;;;6.45;5.45;;;;;;;;;;4993707;28;95939;-78
2023/06/19 06:54:51;;;;;;;10.40;5.05;;;;;;;;;;4993981;28;92300;-77
2023/06/19 06:57:18;;;;;;;7.57;5.93;;;;;;;;;;4986686;28;92367;-77
2023/06/19 06:59:45;;;;;;;15.85;7.10;;;;;;;;;;4995749;28;92510;-77
2023/06/19 07:02:11;;;;;;;9.30;6.82;;;;;;;;;;4998872;28;92404;-77
2023/06/19 07:04:38;;;;;;;8.82;7.88;;;;;;;;;;4987505;28;94737;-77
2023/06/19 07:07:05;;;;;;;13.20;7.88;;;;;;;;;;5000698;28;95328;-77
2023/06/19 07:09:32;;;;;;;12.55;9.10;;;;;;;;;;4999438;28;92471;-77
2023/06/19 07:11:59;;;;;;;11.77;7.82;;;;;;;;;;4991024;28;95799;-77
2023/06/19 07:14:25;;;;;;;12.98;8.73;;;;;;;;;;4981278;28;92457;-78
2023/06/19 07:16:52;;;;;;;11.98;8.18;;;;;;;;;;4994531;28;93404;-78
2023/06/19 07:19:19;;;;;;;10.75;7.10;;;;;;;;;;4993698;28;95176;-79
2023/06/19 07:21:45;;;;;;;14.48;7.57;;;;;;;;;;5002589;28;92885;-78
2023/06/19 07:24:12;;;;;;;15.77;7.25;;;;;;;;;;4999359;28;92475;-78
2023/06/19 07:26:39;;;;;;;10.18;8.35;;;;;;;;;;5005212;28;92426;-78
2023/06/19 07:29:05;;;;;;;10.30;8.27;;;;;;;;;;4992359;28;95102;-77
2023/06/19 07:31:32;;;;;;;9.15;7.53;;;;;;;;;;4997406;28;96976;-78
2023/06/19 07:33:58;;;;;;;17.10;11.32;;;;;;;;;;4991981;28;92511;-77
2023/06/19 07:36:24;;;;;;;18.17;10.68;;;;;;;;;;5009087;28;92422;-78
2023/06/19 07:38:51;;;;;;;11.02;9.27;;;;;;;;;;4997245;28;92419;-77
2023/06/19 07:41:18;;;;;;;13.93;8.73;;;;;;;;;;5008161;28;92500;-77
2023/06/19 07:43:45;;;;;;;12.00;9.02;;;;;;;;;;4985486;28;95020;-78
2023/06/19 07:46:11;;;;;;;12.45;8.75;;;;;;;;;;4993005;28;92084;-78
2023/06/19 07:48:39;;;;;;;12.65;9.82;;;;;;;;;;5004468;28;92148;-78
2023/06/19 07:51:05;;;;;;;14.40;11.38;;;;;;;;;;5006946;28;92404;-78
2023/06/19 07:53:32;;;;;;;13.00;11.25;;;;;;;;;;5000281;28;94517;-79
2023/06/19 07:55:58;;;;;;;14.02;11.20;;;;;;;;;;5007463;28;92413;-77
2023/06/19 07:58:25;;;;;;;16.77;11.45;;;;;;;;;;4980211;28;92445;-78
2023/06/19 08:00:52;;;;;;;16.70;11.43;;;;;;;;;;5003345;28;93350;-78
2023/06/19 08:03:18;;;;;;;14.30;11.48;;;;;;;;;;5011228;28;94189;-77
2023/06/19 08:05:45;;;;;;;22.92;13.40;;;;;;;;;;5000619;28;92462;-77
2023/06/19 08:08:12;;;;;;;26.85;11.95;;;;;;;;;;4986596;28;92378;-77
2023/06/19 08:10:40;;;;;;;22.40;11.55;;;;;;;;;;4986797;28;92205;-77
2023/06/19 08:13:07;;;;;;;22.83;13.18;;;;;;;;;;4999720;28;96006;-78
2023/06/19 08:15:34;;;;;;;17.58;12.77;;;;;;;;;;4995492;28;92481;-78
2023/06/19 08:18:02;;;;;;;14.13;11.52;;;;;;;;;;5005371;28;94701;-78
2023/06/19 08:20:28;;;;;;;23.20;11.98;;;;;;;;;;4990775;28;92453;-78
2023/06/19 08:22:56;;;;;;;15.63;11.90;;;;;;;;;;5007113;28;92064;-78
2023/06/19 08:25:22;;;;;;;18.83;12.85;;;;;;;;;;5003075;28;92570;-78
2023/06/19 08:27:49;;;;;;;17.08;12.30;;;;;;;;;;5009262;28;92154;-78
2023/06/19 08:30:15;;;;;;;16.73;11.52;;;;;;;;;;5005639;28;93039;-78
2023/06/19 08:32:43;;;;;;;15.45;12.15;;;;;;;;;;5010340;28;91947;-79
2023/06/19 08:35:09;;;;;;;15.57;12.43;;;;;;;;;;5017126;28;91682;-77
2023/06/19 08:37:37;;;;;;;18.70;13.02;;;;;;;;;;5005468;28;92376;-77
2023/06/19 08:40:08;;;;;;;23.98;13.13;;;;;;;;;;5012571;28;92490;-78
2023/06/19 08:42:36;;;;;;;18.38;12.68;;;;;;;;;;4986931;28;94808;-78
2023/06/19 08:45:02;;;;;;;22.67;13.43;;;;;;;;;;5013266;28;92831;-78
2023/06/19 08:47:31;;;;;;;19.70;12.63;;;;;;;;;;5006345;28;92893;-79
2023/06/19 08:49:58;;;;;;;18.40;12.80;;;;;;;;;;5009264;28;92791;-78
2023/06/19 08:52:28;;;;;;;20.85;14.00;;;;;;;;;;5010948;28;92505;-79
2023/06/19 08:54:54;;;;;;;18.05;12.85;;;;;;;;;;5003450;28;92379;-79
2023/06/19 08:57:21;;;;;;;18.38;12.70;;;;;;;;;;5017497;28;92302;-78
2023/06/19 08:59:49;;;;;;;16.98;13.25;;;;;;;;;;5000096;28;91989;-78
2023/06/19 09:02:16;;;;;;;21.35;13.63;;;;;;;;;;5010983;28;94147;-79
2023/06/19 09:04:42;;;;;;;21.30;13.02;;;;;;;;;;5012078;28;94493;-79
2023/06/19 09:07:09;;;;;;;19.95;15.07;;;;;;;;;;4989513;28;94494;-78
2023/06/19 09:09:47;;;;;;;20.90;13.25;;;;;;;;;;4998089;28;95156;-79
2023/06/19 09:12:15;;;;;;;19.27;14.68;;;;;;;;;;5002802;28;93904;-78
2023/06/19 09:14:45;;;;;;;22.42;13.35;;;;;;;;;;4989215;28;92747;-79
2023/06/19 09:17:21;;;;;;;16.92;13.73;;;;;;;;;;4998211;28;92342;-78
2023/06/19 09:19:51;;;;;;;24.33;16.75;;;;;;;;;;5006017;28;93722;-79
2023/06/19 09:22:18;;;;;;;20.80;16.73;;;;;;;;;;5008292;28;92386;-79
2023/06/19 09:24:45;;;;;;;23.50;17.42;;;;;;;;;;5007772;28;92012;-77
2023/06/19 09:27:13;;;;;;;22.70;16.10;;;;;;;;;;5011589;28;92300;-78
2023/06/19 09:29:41;;;;;;;29.80;16.58;;;;;;;;;;5023288;28;93817;-77
2023/06/19 09:32:21;;;;;;;23.20;14.85;;;;;;;;;;5006330;28;95135;-77
2023/06/19 09:34:49;;;;;;;22.98;15.45;;;;;;;;;;5007234;28;91972;-78
2023/06/19 09:37:21;;;;;;;17.38;13.02;;;;;;;;;;5007264;28;92455;-78
2023/06/19 09:39:49;;;;;;;21.75;15.45;;;;;;;;;;5014086;28;92398;-79
2023/06/19 09:42:16;;;;;;;24.05;15.43;;;;;;;;;;5013089;28;95013;-78
2023/06/19 09:44:47;;;;;;;21.15;16.30;;;;;;;;;;5009869;28;92568;-79
2023/06/19 09:47:17;;;;;;;24.13;15.07;;;;;;;;;;5010484;28;95774;-79
2023/06/19 09:49:47;;;;;;;20.65;15.15;;;;;;;;;;5007713;28;93127;-78
2023/06/19 09:52:14;;;;;;;19.77;16.10;;;;;;;;;;5008994;28;94385;-79
2023/06/19 09:54:41;;;;;;;19.92;14.98;;;;;;;;;;5004523;28;92485;-78
2023/06/19 09:57:08;;;;;;;18.98;14.27;;;;;;;;;;4995631;28;94703;-77
2023/06/19 09:59:35;;;;;;;16.48;13.52;;;;;;;;;;4989972;28;92358;-78
2023/06/19 10:02:05;;;;;;;21.48;14.40;;;;;;;;;;4996291;28;92219;-79
2023/06/19 10:04:43;;;;;;;20.27;13.10;;;;;;;;;;4999443;28;92499;-80
2023/06/19 10:07:20;;;;;;;18.73;12.98;;;;;;;;;;5002109;28;92804;-80
2023/06/19 10:10:06;;;;;;;29.23;14.40;;;;;;;;;;5004906;28;92595;-80
2023/06/19 10:12:36;;;;;;;18.60;13.45;;;;;;;;;;5000882;28;92029;-79
2023/06/19 10:15:08;;;;;;;19.13;12.82;;;;;;;;;;5004759;28;91856;-78
2023/06/19 10:17:35;;;;;;;15.85;12.82;;;;;;;;;;5008164;28;92603;-78
2023/06/19 10:20:03;;;;;;;17.75;14.35;;;;;;;;;;4983383;28;92515;-78
2023/06/19 10:22:30;;;;;;;16.58;11.93;;;;;;;;;;5007291;28;95154;-79
2023/06/19 10:24:56;;;;;;;18.65;11.90;;;;;;;;;;5002665;28;94085;-79
2023/06/19 10:27:24;;;;;;;24.25;12.15;;;;;;;;;;4999594;28;95674;-78
2023/06/19 10:29:54;;;;;;;19.58;13.05;;;;;;;;;;4986891;28;92341;-81
2023/06/19 10:32:40;;;;;;;17.52;12.65;;;;;;;;;;4993705;28;92908;-79
2023/06/19 10:35:14;;;;;;;16.08;12.50;;;;;;;;;;4965859;28;95991;-78
2023/06/19 10:37:41;;;;;;;17.42;12.43;;;;;;;;;;4993318;28;92495;-79
2023/06/19 10:40:11;;;;;;;18.90;11.60;;;;;;;;;;4987629;28;92040;-79
2023/06/19 10:42:39;;;;;;;25.13;14.20;;;;;;;;;;4999258;28;92442;-78
2023/06/19 10:45:06;;;;;;;17.48;13.38;;;;;;;;;;4983205;28;92713;-80
2023/06/19 10:47:33;;;;;;;22.98;13.43;;;;;;;;;;4993898;28;94554;-79
2023/06/19 10:50:00;;;;;;;21.10;12.90;;;;;;;;;;5002628;28;92936;-79
2023/06/19 10:52:30;;;;;;;21.02;13.63;;;;;;;;;;4991189;28;92805;-80
2023/06/19 10:54:56;;;;;;;21.88;13.38;;;;;;;;;;4975190;28;92651;-78
2023/06/19 10:57:27;;;;;;;15.30;12.68;;;;;;;;;;5007173;28;93324;-80
2023/06/19 10:59:54;;;;;;;16.87;12.73;;;;;;;;;;4995579;28;92168;-80
2023/06/19 11:02:21;;;;;;;16.88;11.50;;;;;;;;;;5011209;28;92428;-80
2023/06/19 11:04:48;;;;;;;13.98;11.48;;;;;;;;;;4998508;28;92468;-80
2023/06/19 11:07:15;;;;;;;16.45;12.00;;;;;;;;;;4998034;28;92297;-79
2023/06/19 11:09:42;;;;;;;21.40;12.68;;;;;;;;;;5002557;28;92296;-80
2023/06/19 11:12:11;;;;;;;18.77;11.75;;;;;;;;;;4993451;28;95121;-81
2023/06/19 11:14:39;;;;;;;15.15;10.02;;;;;;;;;;5011275;28;93081;-80
2023/06/19 11:17:06;;;;;;;16.40;10.85;;;;;;;;;;5011300;28;92488;-80
2023/06/19 11:19:33;;;;;;;14.18;9.13;;;;;;;;;;5003050;28;92546;-80
2023/06/19 11:22:02;;;;;;;18.13;9.65;;;;;;;;;;5009963;28;92435;-81
2023/06/19 11:24:29;;;;;;;15.02;10.80;;;;;;;;;;5004898;28;92791;-80
2023/06/19 11:26:57;;;;;;;17.60;10.73;;;;;;;;;;5006461;28;93337;-80
2023/06/19 11:29:28;;;;;;;18.42;11.10;;;;;;;;;;4999187;28;94870;-81
2023/06/19 11:32:06;;;;;;;16.27;11.10;;;;;;;;;;4998712;28;92649;-81
2023/06/19 11:34:37;;;;;;;13.20;11.65;;;;;;;;;;5010365;28;92305;-80
2023/06/19 11:37:14;;;;;;;15.73;10.77;;;;;;;;;;4992149;28;94838;-80
2023/06/19 11:39:43;;;;;;;12.27;10.60;;;;;;;;;;4983100;28;96919;-80
2023/06/19 11:42:10;;;;;;;17.38;11.63;;;;;;;;;;4991407;28;92066;-81
2023/06/19 11:44:55;;;;;;;16.35;11.05;;;;;;;;;;5001603;28;92248;-81
2023/06/19 11:47:22;;;;;;;17.23;9.80;;;;;;;;;;5008798;28;94332;-80
2023/06/19 11:49:53;;;;;;;14.00;9.07;;;;;;;;;;5003375;28;95126;-81
2023/06/19 11:52:20;;;;;;;18.52;9.88;;;;;;;;;;5004409;28;94382;-81
2023/06/19 11:54:47;;;;;;;17.90;9.32;;;;;;;;;;5009216;28;94709;-80
2023/06/19 11:57:13;;;;;;;11.20;8.77;;;;;;;;;;5012681;28;92485;-80
2023/06/19 11:59:40;;;;;;;12.25;8.52;;;;;;;;;;5003004;28;94447;-81
2023/06/19 12:02:07;;;;;;;11.30;9.18;;;;;;;;;;5024179;28;94862;-80
2023/06/19 12:04:34;;;;;;;15.57;9.32;;;;;;;;;;5017735;28;94057;-80
2023/06/19 12:07:01;;;;;;;12.60;9.50;;;;;;;;;;5018473;28;92893;-80
2023/06/19 12:09:28;;;;;;;14.35;8.55;;;;;;;;;;5009370;28;92950;-78
2023/06/19 12:11:54;;;;;;;12.98;8.93;;;;;;;;;;4997317;28;92546;-78
2023/06/19 12:14:21;;;;;;;12.35;9.43;;;;;;;;;;5009604;28;92405;-79
2023/06/19 12:16:48;;;;;;;10.30;8.50;;;;;;;;;;4980899;28;92159;-78
2023/06/19 12:19:14;;;;;;;15.05;9.05;;;;;;;;;;4996727;28;94112;-78
2023/06/19 12:21:46;;;;;;;10.98;8.82;;;;;;;;;;5011868;28;92438;-78
2023/06/19 12:24:12;;;;;;;13.32;9.57;;;;;;;;;;4992455;28;92597;-78
2023/06/19 12:26:39;;;;;;;15.07;9.05;;;;;;;;;;5019514;28;94900;-78
2023/06/19 12:29:06;;;;;;;15.43;9.55;;;;;;;;;;4995958;28;92418;-79
2023/06/19 12:31:34;;;;;;;9.93;8.73;;;;;;;;;;5011351;28;92860;-79
2023/06/19 12:34:01;;;;;;;13.73;8.15;;;;;;;;;;5011908;28;93501;-79
2023/06/19 12:36:46;;;;;;;12.90;7.60;;;;;;;;;;5011654;28;94956;-79
2023/06/19 12:39:16;;;;;;;12.80;8.30;;;;;;;;;;5019345;28;92249;-79
2023/06/19 12:41:43;;;;;;;11.18;8.02;;;;;;;;;;5005874;28;94252;-78
2023/06/19 12:44:09;;;;;;;12.18;8.70;;;;;;;;;;5017334;28;94908;-78
2023/06/19 12:46:36;;;;;;;17.20;8.30;;;;;;;;;;5020151;28;92734;-78
2023/06/19 12:49:03;;;;;;;8.18;7.00;;;;;;;;;;4998353;28;94498;-79
2023/06/19 12:51:30;;;;;;;6.82;6.20;;;;;;;;;;5003298;28;94666;-79
2023/06/19 12:53:56;;;;;;;7.57;6.55;;;;;;;;;;4996755;28;92176;-78
2023/06/19 12:56:23;;;;;;;8.25;6.53;;;;;;;;;;4986258;28;92379;-79
2023/06/19 12:58:49;;;;;;;8.93;6.88;;;;;;;;;;5003742;28;91992;-80
2023/06/19 13:01:17;;;;;;;11.20;7.15;;;;;;;;;;4997992;28;92285;-80
2023/06/19 13:03:44;;;;;;;10.70;7.07;;;;;;;;;;5014072;28;92734;-79
2023/06/19 13:06:10;;;;;;;12.82;7.55;;;;;;;;;;5005625;28;94513;-79
2023/06/19 13:08:40;;;;;;;9.32;6.47;;;;;;;;;;5018923;28;94726;-79
2023/06/19 13:11:08;;;;;;;9.43;5.97;;;;;;;;;;4991865;28;92015;-79
2023/06/19 13:13:35;;;;;;;9.48;6.30;;;;;;;;;;5001616;28;92489;-79
2023/06/19 13:16:01;;;;;;;14.07;6.45;;;;;;;;;;4999140;28;94899;-80
2023/06/19 13:18:29;;;;;;;8.90;6.20;;;;;;;;;;5003012;28;93975;-80
2023/06/19 13:20:56;;;;;;;13.93;6.53;;;;;;;;;;5004985;28;95426;-80
2023/06/19 13:23:23;;;;;;;8.60;5.93;;;;;;;;;;5004357;28;92475;-79
2023/06/19 13:25:49;;;;;;;7.10;6.03;;;;;;;;;;5004703;28;92395;-80
2023/06/19 13:28:16;;;;;;;12.60;10.07;;;;;;;;;;5015470;28;93241;-80
2023/06/19 13:30:43;;;;;;;6.80;5.38;;;;;;;;;;5022684;28;93068;-80
2023/06/19 13:33:11;;;;;;;10.45;5.65;;;;;;;;;;5007897;28;91717;-80
2023/06/19 13:35:38;;;;;;;9.57;6.47;;;;;;;;;;5013115;28;92206;-79
2023/06/19 13:38:04;;;;;;;12.93;6.22;;;;;;;;;;5005985;28;92378;-79
2023/06/19 13:40:31;;;;;;;13.63;6.55;;;;;;;;;;4999165;28;94405;-78
2023/06/19 13:42:59;;;;;;;10.30;5.93;;;;;;;;;;5005306;28;92431;-79
2023/06/19 13:45:26;;;;;;;7.47;5.05;;;;;;;;;;5008992;28;92889;-80
2023/06/19 13:47:53;;;;;;;4.95;4.20;;;;;;;;;;5006549;28;94257;-79
2023/06/19 13:50:19;;;;;;;7.03;5.03;;;;;;;;;;5018962;28;92076;-79
2023/06/19 13:52:46;;;;;;;8.63;5.80;;;;;;;;;;5009301;28;92504;-80
2023/06/19 13:55:14;;;;;;;8.02;4.35;;;;;;;;;;5002332;28;94906;-79
2023/06/19 13:57:41;;;;;;;10.50;6.30;;;;;;;;;;5000267;28;92418;-80
2023/06/19 14:00:10;;;;;;;12.20;4.95;;;;;;;;;;5021383;28;92400;-80
2023/06/19 14:02:40;;;;;;;10.02;5.00;;;;;;;;;;5000006;28;94402;-79
2023/06/19 14:05:08;;;;;;;13.93;5.03;;;;;;;;;;5009028;28;94886;-80
2023/06/19 14:07:35;;;;;;;8.90;5.18;;;;;;;;;;5003780;28;92500;-80
2023/06/19 14:10:03;;;;;;;5.72;4.50;;;;;;;;;;5007944;28;93092;-80
2023/06/19 14:12:30;;;;;;;6.47;3.87;;;;;;;;;;5004866;28;93088;-80
2023/06/19 14:14:57;;;;;;;8.20;4.13;;;;;;;;;;5001575;28;92426;-80
2023/06/19 14:17:23;;;;;;;8.77;4.28;;;;;;;;;;4999211;28;92403;-80
2023/06/19 14:19:50;;;;;;;7.10;4.57;;;;;;;;;;5006330;28;93325;-79
2023/06/19 14:22:17;;;;;;;12.20;4.03;;;;;;;;;;5005925;28;92689;-80
2023/06/19 14:24:44;;;;;;;6.75;3.85;;;;;;;;;;5008982;28;92401;-80
2023/06/19 14:27:12;;;;;;;4.43;3.85;;;;;;;;;;5007499;28;93851;-80
2023/06/19 14:29:38;;;;;;;6.07;4.55;;;;;;;;;;5007528;28;94808;-80
2023/06/19 14:32:05;;;;;;;6.63;3.72;;;;;;;;;;4993412;28;94027;-80
2023/06/19 14:34:32;;;;;;;7.30;3.95;;;;;;;;;;5008258;28;92283;-79
2023/06/19 14:36:58;;;;;;;12.43;4.03;;;;;;;;;;5004632;28;92248;-80